createdAt,value
2017-01-22T00:00:38.212Z,0
2017-01-22T00:01:20.290Z,0
2017-01-22T00:02:02.256Z,0
2017-01-22T00:02:42.699Z,0
2017-01-22T00:03:23.202Z,0
2017-01-22T00:04:05.748Z,0
2017-01-22T00:04:47.067Z,0
2017-01-22T00:05:29.208Z,0
2017-01-22T00:06:11.288Z,0
2017-01-22T00:06:51.780Z,0
2017-01-22T00:07:33.295Z,0
2017-01-22T00:08:13.781Z,0
2017-01-22T00:08:54.286Z,0
2017-01-22T00:09:34.859Z,0
2017-01-22T00:10:15.964Z,0
2017-01-22T00:10:58.072Z,0
2017-01-22T00:13:33.768Z,0
2017-01-22T00:14:22.525Z,0
2017-01-22T00:15:12.028Z,0
2017-01-22T00:16:01.226Z,0
2017-01-22T00:16:49.791Z,0
2017-01-22T00:17:38.084Z,0
2017-01-22T00:18:27.527Z,0
2017-01-22T00:19:15.594Z,0
2017-01-22T00:20:04.437Z,0
2017-01-22T00:20:52.580Z,0
2017-01-22T00:21:41.422Z,0
2017-01-22T00:22:30.316Z,0
2017-01-22T00:23:19.251Z,0
2017-01-22T00:24:07.975Z,0
2017-01-22T00:24:56.511Z,0
2017-01-22T00:25:37.513Z,0
2017-01-22T00:26:19.509Z,0
2017-01-22T00:26:59.991Z,0
2017-01-22T00:27:41.886Z,0
2017-01-22T00:28:22.448Z,0
2017-01-22T00:29:03.574Z,0
2017-01-22T00:29:44.113Z,0
2017-01-22T00:30:24.629Z,0
2017-01-22T00:31:06.393Z,0
2017-01-22T00:31:46.874Z,0
2017-01-22T00:32:28.998Z,0
2017-01-22T00:33:09.455Z,0
2017-01-22T00:33:49.996Z,0
2017-01-22T00:34:31.989Z,0
2017-01-22T00:35:14.235Z,0
2017-01-22T00:35:54.726Z,0
2017-01-22T00:36:35.281Z,0
2017-01-22T00:37:18.539Z,0
2017-01-22T00:37:59.830Z,0
2017-01-22T00:38:40.338Z,0
2017-01-22T00:39:20.864Z,0
2017-01-22T00:40:01.438Z,0
2017-01-22T00:40:41.920Z,0
2017-01-22T00:41:22.995Z,0
2017-01-22T00:42:04.073Z,0
2017-01-22T00:42:45.360Z,0
2017-01-22T00:43:26.800Z,0
2017-01-22T00:44:07.248Z,0
2017-01-22T00:44:47.731Z,0
2017-01-22T00:45:29.226Z,0
2017-01-22T00:46:11.922Z,0
2017-01-22T00:46:53.290Z,0
2017-01-22T00:47:33.774Z,0
2017-01-22T00:48:14.272Z,0
2017-01-22T00:48:54.714Z,0
2017-01-22T00:49:35.182Z,0
2017-01-22T00:50:15.737Z,0
2017-01-22T00:50:56.232Z,0
2017-01-22T00:51:40.541Z,0
2017-01-22T00:52:20.988Z,0
2017-01-22T00:53:01.477Z,0
2017-01-22T00:53:41.959Z,0
2017-01-22T00:54:22.420Z,0
2017-01-22T00:55:03.035Z,0
2017-01-22T00:55:43.480Z,0
2017-01-22T00:56:24.020Z,0
2017-01-22T00:57:04.579Z,0
2017-01-22T00:57:45.038Z,0
2017-01-22T00:58:25.481Z,0
2017-01-22T00:59:07.012Z,0
2017-01-22T00:59:47.452Z,0
2017-01-22T01:00:27.890Z,0
2017-01-22T01:01:08.380Z,0
2017-01-22T01:01:49.020Z,0
2017-01-22T01:02:29.493Z,0
2017-01-22T01:03:09.975Z,0
2017-01-22T01:03:50.553Z,0
2017-01-22T01:04:30.943Z,0
2017-01-22T01:05:11.500Z,0
2017-01-22T01:05:52.706Z,0
2017-01-22T01:06:33.223Z,0
2017-01-22T01:07:13.664Z,0
2017-01-22T01:07:55.526Z,0
2017-01-22T01:08:36.599Z,0
2017-01-22T01:09:17.122Z,0
2017-01-22T01:09:58.237Z,0
2017-01-22T01:10:38.757Z,0
2017-01-22T01:11:20.235Z,0
2017-01-22T01:12:00.715Z,0
2017-01-22T01:12:41.384Z,0
2017-01-22T01:13:22.540Z,0
2017-01-22T01:14:03.806Z,0
2017-01-22T01:14:44.249Z,0
2017-01-22T01:15:24.811Z,0
2017-01-22T01:16:05.892Z,0
2017-01-22T01:16:46.359Z,0
2017-01-22T01:17:26.867Z,0
2017-01-22T01:18:08.911Z,0
2017-01-22T01:18:49.439Z,0
2017-01-22T01:19:29.931Z,0
2017-01-22T01:20:11.079Z,0
2017-01-22T01:20:51.499Z,0
2017-01-22T01:21:31.973Z,0
2017-01-22T01:22:12.466Z,0
2017-01-22T01:22:55.424Z,0
2017-01-22T01:23:36.559Z,0
2017-01-22T01:24:17.045Z,0
2017-01-22T01:24:57.570Z,0
2017-01-22T01:25:39.807Z,0
2017-01-22T01:26:21.524Z,0
2017-01-22T01:27:01.955Z,0
2017-01-22T01:27:43.040Z,0
2017-01-22T01:28:25.497Z,0
2017-01-22T01:29:06.741Z,0
2017-01-22T01:29:47.752Z,0
2017-01-22T01:30:28.285Z,0
2017-01-22T01:31:08.819Z,0
2017-01-22T01:31:50.230Z,0
2017-01-22T01:32:33.262Z,0
2017-01-22T01:33:13.808Z,0
2017-01-22T01:33:54.955Z,0
2017-01-22T01:34:35.430Z,0
2017-01-22T01:35:16.025Z,0
2017-01-22T01:35:56.482Z,0
2017-01-22T01:36:37.720Z,0
2017-01-22T01:37:18.263Z,0
2017-01-22T01:37:59.515Z,0
2017-01-22T01:38:39.952Z,0
2017-01-22T01:39:22.043Z,0
2017-01-22T01:40:03.990Z,0
2017-01-22T01:40:45.332Z,0
2017-01-22T01:41:25.830Z,0
2017-01-22T01:42:07.206Z,0
2017-01-22T01:42:47.741Z,0
2017-01-22T01:43:28.292Z,0
2017-01-22T01:44:09.500Z,0
2017-01-22T01:44:50.574Z,0
2017-01-22T01:45:31.715Z,0
2017-01-22T01:46:12.217Z,0
2017-01-22T01:46:52.724Z,0
2017-01-22T01:47:33.244Z,0
2017-01-22T01:48:14.450Z,0
2017-01-22T01:48:54.927Z,0
2017-01-22T01:49:35.384Z,0
2017-01-22T01:50:17.417Z,0
2017-01-22T01:50:58.535Z,0
2017-01-22T01:51:39.057Z,0
2017-01-22T01:52:19.583Z,0
2017-01-22T01:53:00.021Z,0
2017-01-22T01:53:40.486Z,0
2017-01-22T01:54:21.764Z,0
2017-01-22T01:55:04.156Z,0
2017-01-22T01:55:44.605Z,0
2017-01-22T01:56:25.589Z,0
2017-01-22T01:57:06.689Z,0
2017-01-22T01:57:50.976Z,0
2017-01-22T01:58:31.583Z,0
2017-01-22T01:59:14.944Z,0
2017-01-22T01:59:56.381Z,0
2017-01-22T02:00:37.323Z,0
2017-01-22T02:01:18.419Z,0
2017-01-22T02:01:59.715Z,0
2017-01-22T02:02:40.912Z,0
2017-01-22T02:03:21.422Z,0
2017-01-22T02:04:02.565Z,0
2017-01-22T02:04:43.596Z,0
2017-01-22T02:05:25.148Z,0
2017-01-22T02:06:06.252Z,0
2017-01-22T02:06:48.353Z,0
2017-01-22T02:07:29.372Z,0
2017-01-22T02:08:10.494Z,0
2017-01-22T02:08:51.764Z,0
2017-01-22T02:09:33.901Z,0
2017-01-22T02:10:14.395Z,0
2017-01-22T02:10:54.965Z,0
2017-01-22T02:11:36.096Z,0
2017-01-22T02:12:16.641Z,0
2017-01-22T02:12:57.079Z,0
2017-01-22T02:13:38.389Z,0
2017-01-22T02:14:19.854Z,0
2017-01-22T02:15:00.347Z,0
2017-01-22T02:15:40.830Z,0
2017-01-22T02:16:21.330Z,0
2017-01-22T02:17:02.764Z,0
2017-01-22T02:17:44.071Z,0
2017-01-22T02:18:27.011Z,0
2017-01-22T02:19:09.424Z,0
2017-01-22T02:19:50.927Z,0
2017-01-22T02:20:31.272Z,0
2017-01-22T02:21:11.733Z,0
2017-01-22T02:21:52.987Z,0
2017-01-22T02:22:34.120Z,0
2017-01-22T02:23:14.667Z,0
2017-01-22T02:23:55.228Z,0
2017-01-22T02:24:35.660Z,0
2017-01-22T02:25:17.713Z,0
2017-01-22T02:25:58.224Z,0
2017-01-22T02:26:38.704Z,0
2017-01-22T02:27:19.231Z,0
2017-01-22T02:28:00.461Z,0
2017-01-22T02:28:42.584Z,0
2017-01-22T02:29:23.027Z,0
2017-01-22T02:30:03.501Z,0
2017-01-22T02:30:44.002Z,0
2017-01-22T02:31:26.182Z,0
2017-01-22T02:32:06.764Z,0
2017-01-22T02:32:47.182Z,0
2017-01-22T02:33:28.536Z,0
2017-01-22T02:34:09.084Z,0
2017-01-22T02:34:50.244Z,0
2017-01-22T02:35:34.543Z,0
2017-01-22T02:36:17.400Z,0
2017-01-22T02:36:58.790Z,0
2017-01-22T02:37:40.421Z,0
2017-01-22T02:38:20.931Z,0
2017-01-22T02:39:01.447Z,0
2017-01-22T02:39:41.907Z,0
2017-01-22T02:40:22.392Z,0
2017-01-22T02:41:03.703Z,0
2017-01-22T02:41:44.957Z,0
2017-01-22T02:42:25.360Z,0
2017-01-22T02:43:06.867Z,0
2017-01-22T02:43:47.841Z,0
2017-01-22T02:44:29.139Z,0
2017-01-22T02:45:11.681Z,0
2017-01-22T02:45:52.174Z,0
2017-01-22T02:46:32.626Z,0
2017-01-22T02:47:15.550Z,0
2017-01-22T02:47:56.893Z,0
2017-01-22T02:48:38.995Z,0
2017-01-22T02:49:19.499Z,0
2017-01-22T02:49:59.991Z,0
2017-01-22T02:50:41.198Z,0
2017-01-22T02:51:22.207Z,0
2017-01-22T02:52:02.729Z,0
2017-01-22T02:52:44.185Z,0
2017-01-22T02:53:26.412Z,0
2017-01-22T02:54:09.532Z,0
2017-01-22T02:54:52.020Z,0
2017-01-22T02:55:32.502Z,0
2017-01-22T02:56:13.742Z,0
2017-01-22T02:56:55.463Z,0
2017-01-22T02:57:36.071Z,0
2017-01-22T02:58:20.014Z,0
2017-01-22T02:59:01.282Z,0
2017-01-22T02:59:42.716Z,0
2017-01-22T03:00:23.218Z,0
2017-01-22T03:01:03.724Z,0
2017-01-22T03:01:44.132Z,0
2017-01-22T03:02:25.380Z,0
2017-01-22T03:03:08.425Z,0
2017-01-22T03:03:48.873Z,0
2017-01-22T03:04:31.019Z,0
2017-01-22T03:05:12.297Z,0
2017-01-22T03:05:52.848Z,0
2017-01-22T03:06:34.297Z,0
2017-01-22T03:07:15.506Z,0
2017-01-22T03:07:56.029Z,0
2017-01-22T03:08:37.256Z,0
2017-01-22T03:09:17.665Z,0
2017-01-22T03:10:01.061Z,0
2017-01-22T03:10:41.615Z,0
2017-01-22T03:11:22.113Z,0
2017-01-22T03:12:04.043Z,0
2017-01-22T03:12:44.513Z,0
2017-01-22T03:13:24.980Z,0
2017-01-22T03:14:05.468Z,0
2017-01-22T03:14:45.980Z,0
2017-01-22T03:15:26.475Z,0
2017-01-22T03:16:06.975Z,0
2017-01-22T03:16:49.215Z,0
2017-01-22T03:17:29.677Z,0
2017-01-22T03:18:10.817Z,0
2017-01-22T03:18:53.907Z,0
2017-01-22T03:19:34.418Z,0
2017-01-22T03:20:14.848Z,0
2017-01-22T03:20:55.923Z,0
2017-01-22T03:21:36.413Z,0
2017-01-22T03:22:18.553Z,0
2017-01-22T03:22:59.953Z,0
2017-01-22T03:23:43.124Z,0
2017-01-22T03:24:24.223Z,0
2017-01-22T03:25:06.445Z,0
2017-01-22T03:25:47.518Z,0
2017-01-22T03:26:28.000Z,0
2017-01-22T03:27:09.061Z,0
2017-01-22T03:27:51.936Z,0
2017-01-22T03:28:33.017Z,0
2017-01-22T03:29:14.098Z,0
2017-01-22T03:29:57.416Z,0
2017-01-22T03:30:39.931Z,0
2017-01-22T03:33:06.789Z,0
2017-01-22T03:33:56.198Z,0
2017-01-22T03:34:45.119Z,0
2017-01-22T03:35:33.851Z,0
2017-01-22T03:36:22.161Z,0
2017-01-22T03:37:10.695Z,0
2017-01-22T03:37:59.367Z,0
2017-01-22T03:38:48.522Z,0
2017-01-22T03:39:36.896Z,0
2017-01-22T03:40:25.692Z,0
2017-01-22T03:41:14.640Z,0
2017-01-22T03:42:03.187Z,0
2017-01-22T03:42:52.204Z,0
2017-01-22T03:43:40.626Z,0
2017-01-22T03:44:29.705Z,0
2017-01-22T03:45:18.078Z,0
2017-01-22T03:46:06.849Z,0
2017-01-22T03:46:55.337Z,0
2017-01-22T03:47:44.114Z,0
2017-01-22T03:48:33.049Z,0
2017-01-22T03:49:21.196Z,0
2017-01-22T03:50:10.561Z,0
2017-01-22T03:50:58.972Z,0
2017-01-22T03:51:48.045Z,0
2017-01-22T03:52:36.356Z,0
2017-01-22T03:53:25.486Z,0
2017-01-22T03:54:14.218Z,0
2017-01-22T03:55:03.032Z,0
2017-01-22T03:55:51.789Z,0
2017-01-22T03:56:40.243Z,0
2017-01-22T03:57:28.938Z,0
2017-01-22T03:58:18.037Z,0
2017-01-22T03:59:06.360Z,0
2017-01-22T03:59:55.178Z,0
2017-01-22T04:00:43.754Z,0
2017-01-22T04:01:32.220Z,0
2017-01-22T04:02:21.171Z,0
2017-01-22T04:03:01.149Z,0
2017-01-22T04:03:41.669Z,0
2017-01-22T04:04:22.222Z,0
2017-01-22T04:05:04.130Z,0
2017-01-22T04:05:45.573Z,0
2017-01-22T04:06:26.103Z,0
2017-01-22T04:07:06.593Z,0
2017-01-22T04:07:47.089Z,0
2017-01-22T04:08:27.597Z,0
2017-01-22T04:09:09.685Z,0
2017-01-22T04:09:50.740Z,0
2017-01-22T04:10:32.160Z,0
2017-01-22T04:11:13.534Z,0
2017-01-22T04:11:54.108Z,0
2017-01-22T04:12:34.582Z,0
2017-01-22T04:13:15.749Z,0
2017-01-22T04:13:56.881Z,0
2017-01-22T04:14:37.991Z,0
2017-01-22T04:15:18.477Z,0
2017-01-22T04:15:59.491Z,0
2017-01-22T04:16:40.752Z,0
2017-01-22T04:17:21.253Z,0
2017-01-22T04:18:01.765Z,0
2017-01-22T04:18:42.233Z,0
2017-01-22T04:19:22.856Z,0
2017-01-22T04:20:04.130Z,0
2017-01-22T04:20:45.385Z,0
2017-01-22T04:21:26.632Z,0
2017-01-22T04:22:07.026Z,0
2017-01-22T04:22:47.560Z,0
2017-01-22T04:23:29.668Z,0
2017-01-22T04:24:10.138Z,0
2017-01-22T04:24:50.593Z,0
2017-01-22T04:25:31.860Z,0
2017-01-22T04:26:12.991Z,0
2017-01-22T04:26:55.594Z,0
2017-01-22T04:27:36.104Z,0
2017-01-22T04:28:16.504Z,0
2017-01-22T04:28:57.073Z,0
2017-01-22T04:29:37.496Z,0
2017-01-22T04:30:18.734Z,0
2017-01-22T04:30:59.427Z,0
2017-01-22T04:31:39.887Z,0
2017-01-22T04:32:22.155Z,0
2017-01-22T04:33:02.603Z,0
2017-01-22T04:33:45.049Z,0
2017-01-22T04:34:25.572Z,0
2017-01-22T04:35:06.147Z,0
2017-01-22T04:35:46.510Z,0
2017-01-22T04:36:26.975Z,0
2017-01-22T04:37:07.506Z,0
2017-01-22T04:37:48.987Z,0
2017-01-22T04:38:29.550Z,0
2017-01-22T04:39:10.711Z,0
2017-01-22T04:39:51.292Z,0
2017-01-22T04:40:32.610Z,0
2017-01-22T04:41:13.075Z,0
2017-01-22T04:41:54.391Z,0
2017-01-22T04:42:34.831Z,0
2017-01-22T04:43:15.338Z,0
2017-01-22T04:43:56.391Z,0
2017-01-22T04:44:36.881Z,0
2017-01-22T04:45:17.904Z,0
2017-01-22T04:45:58.456Z,0
2017-01-22T04:46:39.632Z,0
2017-01-22T04:47:20.117Z,0
2017-01-22T04:48:01.200Z,0
2017-01-22T04:48:42.446Z,0
2017-01-22T04:49:23.670Z,0
2017-01-22T04:50:08.685Z,0
2017-01-22T04:50:51.592Z,0
2017-01-22T04:51:33.646Z,0
2017-01-22T04:52:14.181Z,0
2017-01-22T04:52:55.662Z,0
2017-01-22T04:53:36.175Z,0
2017-01-22T04:54:16.651Z,0
2017-01-22T04:54:58.087Z,0
2017-01-22T04:55:39.126Z,0
2017-01-22T04:56:20.265Z,0
2017-01-22T04:57:01.542Z,0
2017-01-22T04:57:42.616Z,0
2017-01-22T04:58:24.148Z,0
2017-01-22T04:59:06.166Z,0
2017-01-22T04:59:46.577Z,0
2017-01-22T05:00:29.114Z,0
2017-01-22T05:01:09.601Z,0
2017-01-22T05:01:51.072Z,0
2017-01-22T05:02:31.715Z,0
2017-01-22T05:03:12.243Z,0
2017-01-22T05:03:53.457Z,0
2017-01-22T05:04:33.952Z,0
2017-01-22T05:05:15.034Z,0
2017-01-22T05:05:55.480Z,0
2017-01-22T05:06:35.934Z,0
2017-01-22T05:07:17.379Z,0
2017-01-22T05:07:57.797Z,0
2017-01-22T05:08:38.348Z,0
2017-01-22T05:09:18.871Z,0
2017-01-22T05:09:59.300Z,0
2017-01-22T05:10:40.607Z,0
2017-01-22T05:11:22.068Z,0
2017-01-22T05:12:03.126Z,0
2017-01-22T05:12:45.133Z,0
2017-01-22T05:13:26.446Z,0
2017-01-22T05:14:06.953Z,0
2017-01-22T05:14:47.433Z,0
2017-01-22T05:15:27.930Z,0
2017-01-22T05:16:10.909Z,0
2017-01-22T05:16:53.047Z,0
2017-01-22T05:17:33.515Z,0
2017-01-22T05:18:15.587Z,0
2017-01-22T05:18:56.736Z,0
2017-01-22T05:19:37.208Z,0
2017-01-22T05:20:21.071Z,0
2017-01-22T05:21:01.604Z,0
2017-01-22T05:21:42.640Z,0
2017-01-22T05:22:24.644Z,0
2017-01-22T05:23:05.118Z,0
2017-01-22T05:23:45.556Z,0
2017-01-22T05:24:26.125Z,0
2017-01-22T05:25:07.372Z,0
2017-01-22T05:25:49.250Z,0
2017-01-22T05:26:29.709Z,0
2017-01-22T05:27:11.170Z,0
2017-01-22T05:27:51.651Z,0
2017-01-22T05:28:34.007Z,0
2017-01-22T05:29:16.152Z,0
2017-01-22T05:29:57.462Z,0
2017-01-22T05:30:38.004Z,0
2017-01-22T05:31:21.173Z,0
2017-01-22T05:32:04.141Z,0
2017-01-22T05:32:46.106Z,0
2017-01-22T05:33:26.624Z,0
2017-01-22T05:34:07.664Z,0
2017-01-22T05:34:51.589Z,0
2017-01-22T05:35:33.026Z,0
2017-01-22T05:36:16.137Z,0
2017-01-22T05:36:56.547Z,0
2017-01-22T05:37:37.041Z,0
2017-01-22T05:38:17.555Z,0
2017-01-22T05:38:57.977Z,0
2017-01-22T05:39:40.239Z,0
2017-01-22T05:40:21.350Z,0
2017-01-22T05:41:01.892Z,0
2017-01-22T05:41:42.407Z,0
2017-01-22T05:42:25.380Z,0
2017-01-22T05:43:06.699Z,0
2017-01-22T05:43:47.178Z,0
2017-01-22T05:44:27.720Z,0
2017-01-22T05:45:09.718Z,0
2017-01-22T05:45:51.586Z,0
2017-01-22T05:46:32.079Z,0
2017-01-22T05:47:13.538Z,0
2017-01-22T05:47:55.614Z,0
2017-01-22T05:48:36.205Z,0
2017-01-22T05:49:17.583Z,0
2017-01-22T05:49:59.874Z,0
2017-01-22T05:50:41.071Z,0
2017-01-22T05:51:21.577Z,0
2017-01-22T05:52:02.074Z,0
2017-01-22T05:52:43.571Z,0
2017-01-22T05:53:25.591Z,0
2017-01-22T05:54:06.039Z,0
2017-01-22T05:54:48.372Z,0
2017-01-22T05:55:28.869Z,0
2017-01-22T05:56:11.253Z,0
2017-01-22T05:56:51.822Z,0
2017-01-22T05:57:34.047Z,0
2017-01-22T05:58:14.508Z,0
2017-01-22T05:58:55.003Z,0
2017-01-22T05:59:35.551Z,0
2017-01-22T06:00:17.591Z,0
2017-01-22T06:00:58.068Z,0
2017-01-22T06:01:38.534Z,0
2017-01-22T06:02:19.035Z,0
2017-01-22T06:03:00.550Z,0
2017-01-22T06:03:41.757Z,0
2017-01-22T06:04:23.758Z,0
2017-01-22T06:05:04.197Z,0
2017-01-22T06:05:44.719Z,0
2017-01-22T06:06:25.265Z,0
2017-01-22T06:07:07.459Z,0
2017-01-22T06:07:47.979Z,0
2017-01-22T06:08:29.025Z,0
2017-01-22T06:09:09.752Z,0
2017-01-22T06:09:52.062Z,0
2017-01-22T06:10:32.576Z,0
2017-01-22T06:11:13.020Z,0
2017-01-22T06:11:54.279Z,0
2017-01-22T06:12:35.649Z,0
2017-01-22T06:13:16.946Z,0
2017-01-22T06:13:58.017Z,0
2017-01-22T06:14:39.442Z,0
2017-01-22T06:15:20.530Z,0
2017-01-22T06:16:04.531Z,0
2017-01-22T06:16:45.082Z,0
2017-01-22T06:17:26.228Z,0
2017-01-22T06:18:07.434Z,0
2017-01-22T06:18:48.730Z,0
2017-01-22T06:19:29.968Z,0
2017-01-22T06:20:11.401Z,0
2017-01-22T06:20:52.702Z,0
2017-01-22T06:21:33.173Z,0
2017-01-22T06:22:13.661Z,0
2017-01-22T06:22:54.670Z,0
2017-01-22T06:23:36.949Z,0
2017-01-22T06:24:17.496Z,0
2017-01-22T06:24:57.949Z,0
2017-01-22T06:25:38.439Z,0
2017-01-22T06:26:18.945Z,0
2017-01-22T06:27:01.162Z,0
2017-01-22T06:27:42.555Z,0
2017-01-22T06:28:23.125Z,0
2017-01-22T06:29:04.198Z,0
2017-01-22T06:29:45.477Z,0
2017-01-22T06:30:27.563Z,0
2017-01-22T06:31:08.023Z,0
2017-01-22T06:31:49.147Z,0
2017-01-22T06:32:30.561Z,0
2017-01-22T06:33:11.039Z,0
2017-01-22T06:33:51.606Z,0
2017-01-22T06:34:32.646Z,0
2017-01-22T06:35:13.744Z,0
2017-01-22T06:35:54.159Z,0
2017-01-22T06:36:35.663Z,0
2017-01-22T06:37:17.780Z,0
2017-01-22T06:37:58.740Z,0
2017-01-22T06:38:39.966Z,0
2017-01-22T06:39:21.159Z,0
2017-01-22T06:40:02.296Z,0
2017-01-22T06:40:42.789Z,0
2017-01-22T06:41:23.319Z,0
2017-01-22T06:42:03.739Z,0
2017-01-22T06:42:44.837Z,0
2017-01-22T06:43:26.832Z,0
2017-01-22T06:44:08.200Z,0
2017-01-22T06:44:49.648Z,0
2017-01-22T06:45:31.657Z,0
2017-01-22T06:46:14.575Z,0
2017-01-22T06:46:57.561Z,0
2017-01-22T06:47:38.641Z,0
2017-01-22T06:48:19.204Z,0
2017-01-22T06:49:01.276Z,0
2017-01-22T06:49:42.670Z,0
2017-01-22T06:50:24.568Z,0
2017-01-22T06:51:05.090Z,0
2017-01-22T06:51:45.561Z,0
2017-01-22T06:52:26.901Z,0
2017-01-22T06:53:08.020Z,0
2017-01-22T06:53:48.522Z,0
2017-01-22T06:54:29.078Z,0
2017-01-22T06:55:10.338Z,0
2017-01-22T06:55:54.252Z,0
2017-01-22T06:56:34.695Z,0
2017-01-22T06:57:16.178Z,0
2017-01-22T06:57:56.727Z,0
2017-01-22T06:58:38.149Z,0
2017-01-22T06:59:18.637Z,0
2017-01-22T06:59:59.157Z,0
2017-01-22T07:00:39.648Z,0
2017-01-22T07:01:23.714Z,0
2017-01-22T07:02:04.863Z,0
2017-01-22T07:02:46.796Z,0
2017-01-22T07:03:29.665Z,0
2017-01-22T07:04:10.103Z,0
2017-01-22T07:04:51.484Z,0
2017-01-22T07:05:34.689Z,0
2017-01-22T07:06:15.213Z,0
2017-01-22T07:06:58.076Z,0
2017-01-22T07:07:38.568Z,0
2017-01-22T07:08:19.651Z,0
2017-01-22T07:09:00.168Z,0
2017-01-22T07:09:42.045Z,0
2017-01-22T07:10:23.225Z,0
2017-01-22T07:11:05.383Z,0
2017-01-22T07:11:45.792Z,0
2017-01-22T07:12:28.558Z,0
2017-01-22T07:13:10.032Z,0
2017-01-22T07:13:50.545Z,0
2017-01-22T07:14:34.572Z,0
2017-01-22T07:15:17.535Z,0
2017-01-22T07:15:58.633Z,0
2017-01-22T07:16:39.259Z,0
2017-01-22T07:17:22.167Z,0
2017-01-22T07:18:04.613Z,0
2017-01-22T07:18:44.990Z,0
2017-01-22T07:19:27.510Z,0
2017-01-22T07:20:07.986Z,0
2017-01-22T07:20:49.552Z,0
2017-01-22T07:21:30.763Z,0
2017-01-22T07:22:13.797Z,0
2017-01-22T07:22:54.946Z,0
2017-01-22T07:23:36.400Z,0
2017-01-22T07:24:17.610Z,0
2017-01-22T07:24:59.753Z,0
2017-01-22T07:25:41.085Z,0
2017-01-22T07:26:22.235Z,0
2017-01-22T07:27:04.014Z,0
2017-01-22T07:27:45.592Z,0
2017-01-22T07:28:26.068Z,0
2017-01-22T07:29:08.220Z,0
2017-01-22T07:29:49.490Z,0
2017-01-22T07:30:29.971Z,0
2017-01-22T07:31:11.428Z,0
2017-01-22T07:31:51.951Z,0
2017-01-22T07:32:32.471Z,0
2017-01-22T07:33:13.637Z,0
2017-01-22T07:33:54.144Z,0
2017-01-22T07:34:35.367Z,5
2017-01-22T07:35:15.907Z,5
2017-01-22T07:35:58.024Z,5
2017-01-22T07:36:39.212Z,5
2017-01-22T07:37:19.731Z,5
2017-01-22T07:38:00.977Z,5
2017-01-22T07:38:43.055Z,5
2017-01-22T07:39:23.527Z,5
2017-01-22T07:40:04.670Z,5
2017-01-22T07:40:45.145Z,5
2017-01-22T07:41:26.154Z,5
2017-01-22T07:42:06.630Z,5
2017-01-22T07:42:47.119Z,5
2017-01-22T07:43:27.655Z,5
2017-01-22T07:44:08.174Z,5
2017-01-22T07:44:48.680Z,5
2017-01-22T07:45:30.145Z,5
2017-01-22T07:46:10.718Z,5
2017-01-22T07:46:52.066Z,5
2017-01-22T07:47:32.586Z,10
2017-01-22T07:48:14.553Z,10
2017-01-22T07:48:55.965Z,10
2017-01-22T07:49:38.532Z,10
2017-01-22T07:50:20.616Z,10
2017-01-22T07:51:02.975Z,10
2017-01-22T07:51:45.035Z,10
2017-01-22T07:52:25.560Z,10
2017-01-22T07:53:06.706Z,10
2017-01-22T07:53:49.646Z,10
2017-01-22T07:54:30.203Z,10
2017-01-22T07:55:10.645Z,10
2017-01-22T07:55:51.191Z,10
2017-01-22T07:56:36.374Z,15
2017-01-22T07:57:17.474Z,15
2017-01-22T07:58:00.700Z,15
2017-01-22T07:58:42.108Z,15
2017-01-22T07:59:23.270Z,15
2017-01-22T08:00:03.753Z,15
2017-01-22T08:00:44.248Z,15
2017-01-22T08:01:24.740Z,15
2017-01-22T08:02:06.248Z,15
2017-01-22T08:02:47.638Z,15
2017-01-22T08:03:28.110Z,15
2017-01-22T08:04:10.564Z,15
2017-01-22T08:04:52.769Z,15
2017-01-22T08:05:33.323Z,15
2017-01-22T08:06:13.730Z,15
2017-01-22T08:06:54.243Z,15
2017-01-22T08:07:34.762Z,15
2017-01-22T08:08:16.150Z,15
2017-01-22T08:08:56.662Z,20
2017-01-22T08:09:37.253Z,20
2017-01-22T08:10:18.555Z,20
2017-01-22T08:10:59.048Z,20
2017-01-22T08:11:40.325Z,20
2017-01-22T08:12:21.598Z,20
2017-01-22T08:13:03.973Z,20
2017-01-22T08:13:44.425Z,20
2017-01-22T08:14:26.567Z,20
2017-01-22T08:15:07.555Z,20
2017-01-22T08:15:48.048Z,20
2017-01-22T08:16:28.562Z,25
2017-01-22T08:17:09.045Z,20
2017-01-22T08:17:50.172Z,20
2017-01-22T08:18:30.650Z,25
2017-01-22T08:19:13.633Z,25
2017-01-22T08:19:54.126Z,25
2017-01-22T08:20:35.127Z,30
2017-01-22T08:21:16.444Z,30
2017-01-22T08:21:58.745Z,25
2017-01-22T08:22:40.211Z,25
2017-01-22T08:23:23.527Z,30
2017-01-22T08:24:04.036Z,30
2017-01-22T08:24:47.066Z,30
2017-01-22T08:25:28.027Z,30
2017-01-22T08:26:08.506Z,30
2017-01-22T08:26:49.060Z,30
2017-01-22T08:27:30.248Z,30
2017-01-22T08:28:11.610Z,30
2017-01-22T08:28:52.162Z,30
2017-01-22T08:29:33.468Z,30
2017-01-22T08:30:14.821Z,30
2017-01-22T08:30:55.307Z,35
2017-01-22T08:31:35.924Z,35
2017-01-22T08:32:17.913Z,35
2017-01-22T08:32:58.423Z,35
2017-01-22T08:33:39.749Z,30
2017-01-22T08:34:21.120Z,30
2017-01-22T08:35:04.166Z,30
2017-01-22T08:35:44.665Z,30
2017-01-22T08:36:25.808Z,30
2017-01-22T08:37:07.026Z,30
2017-01-22T08:37:48.409Z,30
2017-01-22T08:38:31.321Z,35
2017-01-22T08:39:12.439Z,35
2017-01-22T08:39:54.633Z,40
2017-01-22T08:40:37.682Z,40
2017-01-22T08:41:18.219Z,40
2017-01-22T08:42:00.467Z,40
2017-01-22T08:42:44.552Z,40
2017-01-22T08:43:25.068Z,40
2017-01-22T08:44:20.215Z,40
2017-01-22T08:45:01.234Z,40
2017-01-22T08:45:42.197Z,40
2017-01-22T08:46:24.599Z,40
2017-01-22T08:47:06.888Z,45
2017-01-22T08:47:51.143Z,45
2017-01-22T08:48:31.673Z,45
2017-01-22T08:49:12.951Z,50
2017-01-22T08:49:53.437Z,50
2017-01-22T08:50:33.952Z,45
2017-01-22T08:51:14.800Z,45
2017-01-22T08:54:10.177Z,45
2017-01-22T08:54:55.685Z,50
2017-01-22T08:55:44.890Z,50
2017-01-22T08:56:32.905Z,50
2017-01-22T08:57:21.713Z,50
2017-01-22T08:58:10.216Z,55
2017-01-22T08:59:00.915Z,55
2017-01-22T08:59:52.702Z,55
2017-01-22T09:00:44.109Z,55
2017-01-22T09:01:32.088Z,55
2017-01-22T09:02:20.982Z,50
2017-01-22T09:03:09.677Z,55
2017-01-22T09:03:59.219Z,55
2017-01-22T09:04:47.552Z,55
2017-01-22T09:05:35.861Z,60
2017-01-22T09:06:27.572Z,60
2017-01-22T09:07:15.615Z,60
2017-01-22T09:08:04.286Z,60
2017-01-22T09:08:53.541Z,60
2017-01-22T09:09:41.735Z,65
2017-01-22T09:10:30.662Z,60
2017-01-22T09:11:19.457Z,60
2017-01-22T09:12:07.852Z,60
2017-01-22T09:12:47.820Z,65
2017-01-22T09:13:28.893Z,65
2017-01-22T09:14:09.903Z,65
2017-01-22T09:14:50.357Z,65
2017-01-22T09:15:30.849Z,65
2017-01-22T09:16:12.194Z,65
2017-01-22T09:16:54.174Z,65
2017-01-22T09:17:35.202Z,65
2017-01-22T09:18:16.781Z,65
2017-01-22T09:18:58.501Z,65
2017-01-22T09:19:41.470Z,65
2017-01-22T09:20:21.943Z,65
2017-01-22T09:21:04.987Z,65
2017-01-22T09:21:45.737Z,65
2017-01-22T09:22:30.882Z,65
2017-01-22T09:23:11.411Z,65
2017-01-22T09:23:52.766Z,65
2017-01-22T09:24:34.593Z,70
2017-01-22T09:25:16.046Z,65
2017-01-22T09:25:56.564Z,65
2017-01-22T09:26:37.054Z,60
2017-01-22T09:27:19.729Z,60
2017-01-22T09:28:01.220Z,60
2017-01-22T09:28:42.545Z,60
2017-01-22T09:29:23.066Z,60
2017-01-22T09:30:04.371Z,65
2017-01-22T09:30:44.905Z,70
2017-01-22T09:31:25.389Z,65
2017-01-22T09:32:07.018Z,70
2017-01-22T09:32:47.496Z,70
2017-01-22T09:33:28.884Z,70
2017-01-22T09:34:11.067Z,70
2017-01-22T09:34:54.017Z,70
2017-01-22T09:35:35.449Z,70
2017-01-22T09:36:18.404Z,70
2017-01-22T09:36:58.989Z,70
2017-01-22T09:37:40.183Z,70
2017-01-22T09:38:21.543Z,70
2017-01-22T09:39:04.382Z,70
2017-01-22T09:39:47.150Z,70
2017-01-22T09:40:29.319Z,70
2017-01-22T09:41:09.941Z,70
2017-01-22T09:41:50.351Z,70
2017-01-22T09:42:31.759Z,70
2017-01-22T09:43:14.500Z,70
2017-01-22T09:43:54.960Z,70
2017-01-22T09:44:36.538Z,75
2017-01-22T09:45:18.807Z,75
2017-01-22T09:45:59.294Z,75
2017-01-22T09:46:40.325Z,75
2017-01-22T09:47:21.298Z,75
2017-01-22T09:48:02.577Z,75
2017-01-22T09:48:43.045Z,75
2017-01-22T09:49:23.587Z,75
2017-01-22T09:50:04.680Z,75
2017-01-22T09:50:45.228Z,75
2017-01-22T09:51:26.576Z,70
2017-01-22T09:52:07.113Z,75
2017-01-22T09:52:49.278Z,75
2017-01-22T09:53:32.892Z,75
2017-01-22T09:54:15.235Z,75
2017-01-22T09:54:57.058Z,75
2017-01-22T09:55:37.543Z,75
2017-01-22T09:56:18.116Z,75
2017-01-22T09:56:58.647Z,75
2017-01-22T09:57:40.688Z,80
2017-01-22T09:58:22.029Z,80
2017-01-22T09:59:05.389Z,85
2017-01-22T09:59:45.849Z,75
2017-01-22T10:00:27.277Z,75
2017-01-22T10:01:07.796Z,75
2017-01-22T10:01:49.198Z,70
2017-01-22T10:02:29.650Z,75
2017-01-22T10:03:10.143Z,75
2017-01-22T10:03:50.616Z,75
2017-01-22T10:04:31.088Z,75
2017-01-22T10:05:12.185Z,75
2017-01-22T10:05:54.699Z,75
2017-01-22T10:06:35.204Z,75
2017-01-22T10:07:15.682Z,75
2017-01-22T10:07:56.230Z,80
2017-01-22T10:08:36.701Z,75
2017-01-22T10:09:17.203Z,75
2017-01-22T10:09:57.657Z,75
2017-01-22T10:10:39.580Z,70
2017-01-22T10:11:20.056Z,70
2017-01-22T10:12:00.603Z,70
2017-01-22T10:12:41.106Z,75
2017-01-22T10:13:22.597Z,75
2017-01-22T10:14:03.877Z,75
2017-01-22T10:14:44.413Z,75
2017-01-22T10:15:25.483Z,75
2017-01-22T10:16:05.972Z,75
2017-01-22T10:16:46.447Z,80
2017-01-22T10:17:27.009Z,80
2017-01-22T10:18:07.462Z,80
2017-01-22T10:18:48.035Z,80
2017-01-22T10:19:28.461Z,80